createdAt,value
2018-03-11T00:01:32.423Z,1009.3
2018-03-11T00:06:32.318Z,1009.3
2018-03-11T00:11:32.515Z,1009.5
2018-03-11T00:16:32.319Z,1009.4
2018-03-11T00:21:32.478Z,1009.3
2018-03-11T00:26:32.516Z,1009.2
2018-03-11T00:31:32.448Z,1009.2
2018-03-11T00:36:32.457Z,1009.1
2018-03-11T00:41:32.346Z,1009
2018-03-11T00:46:32.297Z,1009
2018-03-11T00:51:32.446Z,1008.9
2018-03-11T00:56:32.338Z,1009
2018-03-11T01:01:32.458Z,1008.9
2018-03-11T01:06:35.056Z,1008.8
2018-03-11T01:11:32.537Z,1008.7
2018-03-11T01:16:32.542Z,1008.7
2018-03-11T01:21:32.463Z,1008.8
2018-03-11T01:26:32.507Z,1008.7
2018-03-11T01:31:32.937Z,1008.6
2018-03-11T01:36:32.533Z,1008.6
2018-03-11T01:41:32.490Z,1008.5
2018-03-11T01:46:32.501Z,1008.4
2018-03-11T01:51:32.524Z,1008.3
2018-03-11T01:56:32.489Z,1008.2
2018-03-11T02:01:32.373Z,1008.2
2018-03-11T02:06:32.364Z,1008.2
2018-03-11T02:11:32.498Z,1008.1
2018-03-11T02:16:32.529Z,1008.1
2018-03-11T02:21:32.395Z,1008.2
2018-03-11T02:26:35.651Z,1008.2
2018-03-11T02:31:40.787Z,1008.2
2018-03-11T02:36:35.709Z,1008.2
2018-03-11T02:41:35.708Z,1008.2
2018-03-11T02:46:36.047Z,1008.1
2018-03-11T02:51:35.710Z,1008.1
2018-03-11T02:56:35.712Z,1008.2
2018-03-11T03:01:35.924Z,1008.1
2018-03-11T03:06:35.728Z,1008.3
2018-03-11T03:11:35.735Z,1008.4
2018-03-11T03:16:35.835Z,1008.3
2018-03-11T03:21:35.890Z,1008.2
2018-03-11T03:26:35.814Z,1008.1
2018-03-11T03:31:36.020Z,1007.9
2018-03-11T03:36:36.105Z,1007.9
2018-03-11T03:41:35.795Z,1008.1
2018-03-11T03:46:35.815Z,1008.1
2018-03-11T03:51:35.805Z,1008.1
2018-03-11T03:56:36.686Z,1008.2
2018-03-11T04:01:36.051Z,1008.1
2018-03-11T04:06:36.250Z,1008
2018-03-11T04:11:36.080Z,1007.8
2018-03-11T04:16:36.307Z,1007.8
2018-03-11T04:21:36.088Z,1007.8
2018-03-11T04:26:36.298Z,1007.7
2018-03-11T04:31:36.104Z,1007.6
2018-03-11T04:36:36.336Z,1007.6
2018-03-11T04:41:36.225Z,1007.5
2018-03-11T04:46:36.402Z,1007.6
2018-03-11T04:51:36.205Z,1007.6
2018-03-11T04:56:36.264Z,1007.6
2018-03-11T05:01:36.286Z,1007.5
2018-03-11T05:06:36.287Z,1007.4
2018-03-11T05:11:36.437Z,1007.3
2018-03-11T05:16:36.450Z,1007.3
2018-03-11T05:21:36.855Z,1007.2
2018-03-11T05:26:37.044Z,1007.1
2018-03-11T05:31:36.944Z,1007.1
2018-03-11T05:36:36.961Z,1007
2018-03-11T05:41:37.068Z,1007
2018-03-11T05:46:37.096Z,1006.9
2018-03-11T05:51:37.091Z,1006.9
2018-03-11T05:56:37.098Z,1006.5
2018-03-11T06:01:37.246Z,1006.4
2018-03-11T06:06:37.274Z,1006.4
2018-03-11T06:11:37.314Z,1006.6
2018-03-11T06:16:37.119Z,1006.5
2018-03-11T06:21:37.085Z,1006.5
2018-03-11T06:26:37.095Z,1006.2
2018-03-11T06:31:37.111Z,1006.2
2018-03-11T06:36:37.112Z,1006.2
2018-03-11T06:41:37.377Z,1006.3
2018-03-11T06:46:37.332Z,1006.3
2018-03-11T06:51:37.371Z,1006.2
2018-03-11T06:56:37.325Z,1005.9
2018-03-11T07:01:37.147Z,1005.9
2018-03-11T07:06:37.090Z,1005.9
2018-03-11T07:11:38.802Z,1005.9
2018-03-11T07:16:44.350Z,1005.8
2018-03-11T07:21:49.191Z,1005.8
2018-03-11T07:26:44.247Z,1005.8
2018-03-11T07:31:44.074Z,1005.7
2018-03-11T07:36:44.307Z,1005.8
2018-03-11T07:41:44.218Z,1005.3
2018-03-11T07:46:44.353Z,1005.2
2018-03-11T07:51:44.218Z,1005.1
2018-03-11T07:56:44.288Z,1005.1
2018-03-11T08:01:44.086Z,1004.7
2018-03-11T08:06:44.168Z,1004.8
2018-03-11T08:11:44.232Z,1004.6
2018-03-11T08:16:44.389Z,1004.6
2018-03-11T08:21:44.501Z,1004.4
2018-03-11T08:26:44.662Z,1004.5
2018-03-11T08:31:44.381Z,1004.5
2018-03-11T08:36:44.363Z,1004.4
2018-03-11T08:41:44.984Z,1004.4
2018-03-11T08:46:44.406Z,1004.5
2018-03-11T08:51:44.498Z,1004.3
2018-03-11T08:56:44.363Z,1004.2
2018-03-11T09:01:44.578Z,1004.2
2018-03-11T09:06:44.406Z,1004.1
2018-03-11T09:11:44.403Z,1004.2
2018-03-11T09:16:44.345Z,1004
2018-03-11T09:21:44.402Z,1004
2018-03-11T09:26:44.690Z,1004
2018-03-11T09:31:44.592Z,1004
2018-03-11T09:36:44.467Z,1003.8
2018-03-11T09:41:44.396Z,1003.8
2018-03-11T09:46:44.584Z,1003.8
2018-03-11T09:51:44.381Z,1003.7
2018-03-11T09:56:44.406Z,1003.6
2018-03-11T10:01:44.408Z,1003.5
2018-03-11T10:06:44.441Z,1003.5
2018-03-11T10:11:44.424Z,1003.3
2018-03-11T10:16:44.429Z,1003.3
2018-03-11T10:21:44.422Z,1003.3
2018-03-11T10:26:44.449Z,1003.3
2018-03-11T10:31:44.409Z,1003
2018-03-11T10:36:44.799Z,1003
2018-03-11T10:41:44.921Z,1003
2018-03-11T10:46:44.428Z,1002.7
2018-03-11T10:51:44.455Z,1002.7
2018-03-11T10:56:44.476Z,1002.6
2018-03-11T11:01:44.483Z,1002.5
2018-03-11T11:06:44.488Z,1002.4
2018-03-11T11:11:44.461Z,1002.4
2018-03-11T11:16:44.483Z,1002
2018-03-11T11:21:44.471Z,1001.9
2018-03-11T11:26:44.474Z,1001.8
2018-03-11T11:31:44.469Z,1001.7
2018-03-11T11:36:44.465Z,1001.5
2018-03-11T11:41:44.489Z,1001.4
2018-03-11T11:46:44.493Z,1001.2
2018-03-11T11:51:44.699Z,1001.1
2018-03-11T11:56:44.946Z,1001
2018-03-11T12:01:44.627Z,1001
2018-03-11T12:06:44.610Z,1000.7
2018-03-11T12:11:45.212Z,1000.6
2018-03-11T12:16:50.025Z,1000.4
2018-03-11T12:21:44.948Z,1000.2
2018-03-11T12:26:44.902Z,1000.2
2018-03-11T12:31:44.935Z,1000
2018-03-11T12:36:44.916Z,999.9
2018-03-11T12:41:45.271Z,999.9
2018-03-11T12:46:44.968Z,999.7
2018-03-11T12:51:44.888Z,999.6
2018-03-11T12:56:44.969Z,999.5
2018-03-11T13:01:44.932Z,999.3
2018-03-11T13:06:44.932Z,999.3
2018-03-11T13:11:44.963Z,999.1
2018-03-11T13:16:44.942Z,999.1
2018-03-11T13:21:44.962Z,999.2
2018-03-11T13:26:45.012Z,999.1
2018-03-11T13:31:45.190Z,998.8
2018-03-11T13:36:45.201Z,999
2018-03-11T13:41:45.194Z,999
2018-03-11T13:46:45.235Z,999
2018-03-11T13:51:45.235Z,998.9
2018-03-11T13:56:45.205Z,998.8
2018-03-11T14:01:45.216Z,998.7
2018-03-11T14:06:45.248Z,998.6
2018-03-11T14:11:45.238Z,998.6
2018-03-11T14:16:45.225Z,998.6
2018-03-11T14:21:45.278Z,998.5
2018-03-11T14:26:45.268Z,998.5
2018-03-11T14:31:45.247Z,998.5
2018-03-11T14:36:45.247Z,998.4
2018-03-11T14:41:45.248Z,998.3
2018-03-11T14:46:45.350Z,998.2
2018-03-11T14:51:45.634Z,998
2018-03-11T14:56:45.437Z,997.9
2018-03-11T15:01:48.343Z,997.9
2018-03-11T15:06:45.580Z,998.1
2018-03-11T15:11:45.548Z,998.1
2018-03-11T15:16:45.705Z,998.1
2018-03-11T15:21:45.540Z,998.2
2018-03-11T15:26:45.559Z,998.1
2018-03-11T15:31:45.571Z,998
2018-03-11T15:36:45.539Z,997.9
2018-03-11T15:41:45.547Z,998
2018-03-11T15:46:46.000Z,997.9
2018-03-11T15:51:45.544Z,997.9
2018-03-11T15:56:45.532Z,997.8
2018-03-11T16:01:45.549Z,997.8
2018-03-11T16:06:45.595Z,997.8
2018-03-11T16:11:45.590Z,998
2018-03-11T16:16:45.571Z,997.8
2018-03-11T16:21:46.040Z,997.9
2018-03-11T16:26:45.601Z,997.9
2018-03-11T16:31:45.595Z,998
2018-03-11T16:36:45.572Z,998
2018-03-11T16:41:45.584Z,998
2018-03-11T16:46:45.574Z,998
2018-03-11T16:51:45.590Z,997.8
2018-03-11T16:56:45.616Z,997.7
2018-03-11T17:01:45.605Z,997.6
2018-03-11T17:06:50.230Z,997.8
2018-03-11T17:11:55.020Z,997.7
2018-03-11T17:17:00.125Z,997.7
2018-03-11T17:21:55.036Z,997.8
2018-03-11T17:26:55.021Z,997.5
2018-03-11T17:31:55.375Z,997.4
2018-03-11T17:36:55.142Z,997.5
2018-03-11T17:41:55.928Z,997.5
2018-03-11T17:46:55.014Z,997.3
2018-03-11T17:51:55.051Z,997.3
2018-03-11T17:56:55.053Z,997.3
2018-03-11T18:01:55.217Z,997.4
2018-03-11T18:06:55.130Z,997.3
2018-03-11T18:11:55.036Z,997.2
2018-03-11T18:16:55.048Z,997.1
2018-03-11T18:21:55.049Z,997
2018-03-11T18:26:55.087Z,997.2
2018-03-11T18:31:55.072Z,997.1
2018-03-11T18:36:55.039Z,997.1
2018-03-11T18:41:55.068Z,997
2018-03-11T18:46:55.104Z,997
2018-03-11T18:51:55.028Z,997
2018-03-11T18:56:55.072Z,996.8
2018-03-11T19:01:55.071Z,996.8
2018-03-11T19:06:55.275Z,996.7
2018-03-11T19:11:55.092Z,996.7
2018-03-11T19:16:55.234Z,996.7
2018-03-11T19:21:55.093Z,996.8
2018-03-11T19:26:55.102Z,996.8
2018-03-11T19:31:55.240Z,996.8
2018-03-11T19:36:55.295Z,996.8
2018-03-11T19:41:55.125Z,996.7
2018-03-11T19:46:55.363Z,996.9
2018-03-11T19:51:55.231Z,997
2018-03-11T19:56:55.156Z,996.9
2018-03-11T20:01:55.287Z,996.8
2018-03-11T20:06:55.126Z,996.7
2018-03-11T20:11:55.338Z,996.7
2018-03-11T20:16:55.341Z,996.8
2018-03-11T20:21:55.452Z,996.8
2018-03-11T20:26:55.337Z,996.7
2018-03-11T20:31:55.331Z,996.7
2018-03-11T20:36:55.340Z,996.8
2018-03-11T20:41:55.381Z,996.7
2018-03-11T20:46:55.675Z,996.7
2018-03-11T20:51:55.575Z,996.7
2018-03-11T20:56:55.449Z,996.6
2018-03-11T21:01:55.363Z,996.6
2018-03-11T21:06:55.477Z,996.7
2018-03-11T21:11:55.621Z,996.6
2018-03-11T21:16:55.651Z,996.7
2018-03-11T21:21:55.641Z,996.5
2018-03-11T21:26:55.387Z,996.7
2018-03-11T21:31:55.388Z,996.4
2018-03-11T21:36:55.403Z,996.1
2018-03-11T21:41:55.373Z,996.1
2018-03-11T21:46:55.362Z,996.1
2018-03-11T21:51:55.378Z,996.5
2018-03-11T21:56:56.801Z,996.4
2018-03-11T22:01:55.390Z,996.1
2018-03-11T22:06:56.315Z,995.8
2018-03-11T22:12:01.693Z,995.7
2018-03-11T22:17:06.682Z,995.6
2018-03-11T22:22:01.640Z,995.5
2018-03-11T22:27:01.415Z,995.5
2018-03-11T22:32:01.421Z,995.2
2018-03-11T22:37:01.605Z,995.3
2018-03-11T22:42:01.679Z,995.2
2018-03-11T22:47:01.561Z,995
2018-03-11T22:52:01.440Z,995
2018-03-11T22:57:01.627Z,994.8
2018-03-11T23:02:01.616Z,994.8
2018-03-11T23:07:01.547Z,994.6
2018-03-11T23:12:01.427Z,994.6
2018-03-11T23:17:01.762Z,994.6
2018-03-11T23:22:01.616Z,994.5
2018-03-11T23:27:01.449Z,994.5
2018-03-11T23:32:01.685Z,994.3
2018-03-11T23:37:01.573Z,994.3
2018-03-11T23:42:01.622Z,994.3
2018-03-11T23:47:01.785Z,994.4
2018-03-11T23:52:01.626Z,994.4
2018-03-11T23:57:01.850Z,994.3
